createdAt,value
2022-09-21T00:00:50.018Z,6.4
2022-09-21T00:02:50.249Z,6.4
2022-09-21T00:04:49.552Z,5.6
2022-09-21T00:06:49.722Z,5.6
2022-09-21T00:08:49.596Z,5.2
2022-09-21T00:10:50.362Z,5.2
2022-09-21T00:12:50.307Z,6.7
2022-09-21T00:14:50.114Z,5.2
2022-09-21T00:16:50.273Z,6.9
2022-09-21T00:18:50.434Z,6.4
2022-09-21T00:20:50.367Z,6.4
2022-09-21T00:22:50.322Z,11.1
2022-09-21T00:24:50.234Z,10.5
2022-09-21T00:26:50.372Z,8.8
2022-09-21T00:28:50.372Z,8.9
2022-09-21T00:30:50.117Z,8.9
2022-09-21T00:32:49.843Z,6.8
2022-09-21T00:34:50.221Z,10.4
2022-09-21T00:36:50.237Z,10.9
2022-09-21T00:38:50.027Z,10.9
2022-09-21T00:40:49.963Z,11.9
2022-09-21T00:42:49.777Z,15.9
2022-09-21T00:44:50.489Z,8.2
2022-09-21T00:46:49.815Z,7.7
2022-09-21T00:48:49.699Z,11.2
2022-09-21T00:50:49.617Z,11.2
2022-09-21T00:52:50.407Z,11.6
2022-09-21T00:54:50.219Z,11.2
2022-09-21T00:56:50.428Z,14.0
2022-09-21T00:58:50.172Z,11.4
2022-09-21T01:00:49.976Z,11.4
2022-09-21T01:02:50.173Z,8.7
2022-09-21T01:04:50.420Z,17.9
2022-09-21T01:06:49.546Z,13.4
2022-09-21T01:08:50.325Z,12.6
2022-09-21T01:10:50.194Z,12.6
2022-09-21T01:12:50.125Z,11.3
2022-09-21T01:14:50.107Z,11.3
2022-09-21T01:16:50.397Z,13.1
2022-09-21T01:18:50.369Z,21.4
2022-09-21T01:20:50.112Z,21.4
2022-09-21T01:22:50.016Z,18.7
2022-09-21T01:24:49.698Z,20.0
2022-09-21T01:26:49.940Z,17.1
2022-09-21T01:28:49.935Z,17.1
2022-09-21T01:30:49.805Z,15.5
2022-09-21T01:32:49.756Z,15.5
2022-09-21T01:34:50.263Z,13.2
2022-09-21T01:36:50.429Z,15.9
2022-09-21T01:38:50.232Z,14.4
2022-09-21T01:40:50.121Z,14.4
2022-09-21T01:42:49.904Z,15.9
2022-09-21T01:44:49.681Z,19.2
2022-09-21T01:46:49.729Z,17.3
2022-09-21T01:48:49.592Z,17.3
2022-09-21T01:50:50.328Z,17.2
2022-09-21T01:52:50.127Z,14.7
2022-09-21T01:54:50.030Z,17.0
2022-09-21T01:56:50.247Z,11.1
2022-09-21T01:58:50.065Z,11.1
2022-09-21T02:00:49.867Z,11.5
2022-09-21T02:02:49.777Z,15.0
2022-09-21T02:04:50.017Z,15.0
2022-09-21T02:06:50.255Z,17.9
2022-09-21T02:08:50.404Z,17.9
2022-09-21T02:10:50.163Z,19.8
2022-09-21T02:12:49.923Z,24.5
2022-09-21T02:14:49.663Z,24.5
2022-09-21T02:16:49.972Z,15.8
2022-09-21T02:18:49.878Z,15.8
2022-09-21T02:20:49.712Z,22.2
2022-09-21T02:22:50.165Z,29.5
2022-09-21T02:24:49.929Z,17.0
2022-09-21T02:26:50.000Z,17.0
2022-09-21T02:28:50.013Z,25.5
2022-09-21T02:30:49.958Z,16.4
2022-09-21T02:32:49.792Z,17.5
2022-09-21T02:34:50.117Z,26.3
2022-09-21T02:36:50.397Z,26.3
2022-09-21T02:38:50.133Z,12.8
2022-09-21T02:40:50.041Z,19.0
2022-09-21T02:42:49.921Z,28.4
2022-09-21T02:44:49.656Z,26.7
2022-09-21T02:46:49.955Z,26.7
2022-09-21T02:48:50.162Z,19.6
2022-09-21T02:50:49.859Z,16.1
2022-09-21T02:52:49.905Z,16.1
2022-09-21T02:54:49.764Z,23.2
2022-09-21T02:56:50.015Z,23.2
2022-09-21T02:58:49.785Z,20.5
2022-09-21T03:00:49.850Z,17.4
2022-09-21T03:02:50.169Z,18.3
2022-09-21T03:04:50.422Z,18.3
2022-09-21T03:06:49.601Z,22.1
2022-09-21T03:08:50.344Z,27.0
2022-09-21T03:10:50.407Z,20.6
2022-09-21T03:12:49.621Z,23.9
2022-09-21T03:14:49.700Z,23.9
2022-09-21T03:16:49.958Z,20.6
2022-09-21T03:18:49.750Z,15.7
2022-09-21T03:20:49.824Z,22.0
2022-09-21T03:22:49.645Z,22.0
2022-09-21T03:24:49.579Z,13.0
2022-09-21T03:26:49.622Z,18.8
2022-09-21T03:28:50.364Z,17.9
2022-09-21T03:30:50.312Z,13.8
2022-09-21T03:32:50.434Z,18.7
2022-09-21T03:34:49.889Z,18.7
2022-09-21T03:36:50.144Z,16.3
2022-09-21T03:38:50.335Z,14.3
2022-09-21T03:40:50.127Z,14.3
2022-09-21T03:42:49.926Z,18.0
2022-09-21T03:44:49.752Z,18.0
2022-09-21T03:46:49.864Z,15.9
2022-09-21T03:48:49.826Z,15.1
2022-09-21T03:50:49.641Z,14.5
2022-09-21T03:52:50.326Z,14.5
2022-09-21T03:54:50.205Z,12.5
2022-09-21T03:56:49.758Z,13.9
2022-09-21T03:58:49.852Z,12.0
2022-09-21T04:00:49.582Z,9.0
2022-09-21T04:02:50.496Z,9.0
2022-09-21T04:04:50.115Z,17.2
2022-09-21T04:06:50.452Z,17.9
2022-09-21T04:08:50.415Z,12.6
2022-09-21T04:10:50.065Z,12.6
2022-09-21T04:12:49.991Z,18.2
2022-09-21T04:14:49.968Z,15.8
2022-09-21T04:16:50.116Z,17.7
2022-09-21T04:18:49.966Z,21.8
2022-09-21T04:20:49.829Z,21.8
2022-09-21T04:22:49.699Z,22.7
2022-09-21T04:24:49.635Z,43.1
2022-09-21T04:26:49.900Z,26.3
2022-09-21T04:28:49.946Z,17.8
2022-09-21T04:30:49.868Z,17.8
2022-09-21T04:32:49.860Z,9.7
2022-09-21T04:34:50.310Z,20.0
2022-09-21T04:36:50.578Z,10.6
2022-09-21T04:38:50.307Z,28.3
2022-09-21T04:40:50.465Z,28.3
2022-09-21T04:42:50.331Z,22.2
2022-09-21T04:44:50.235Z,21.8
2022-09-21T04:46:50.343Z,21.8
2022-09-21T04:48:50.402Z,10.2
2022-09-21T04:50:50.167Z,10.2
2022-09-21T04:52:50.027Z,9.4
2022-09-21T04:54:50.056Z,13.0
2022-09-21T04:56:50.194Z,13.0
2022-09-21T04:58:50.090Z,8.1
2022-09-21T05:00:50.023Z,8.1
2022-09-21T05:02:49.931Z,9.3
2022-09-21T05:04:50.922Z,5.9
2022-09-21T05:06:50.382Z,7.2
2022-09-21T05:08:50.240Z,6.6
2022-09-21T05:10:50.139Z,6.6
2022-09-21T05:12:49.946Z,9.7
2022-09-21T05:14:49.988Z,9.5
2022-09-21T05:16:49.979Z,8.6
2022-09-21T05:18:49.839Z,8.6
2022-09-21T05:20:49.731Z,9.3
2022-09-21T05:22:49.701Z,17.2
2022-09-21T05:24:50.472Z,11.8
2022-09-21T05:26:50.521Z,8.2
2022-09-21T05:28:50.289Z,8.2
2022-09-21T05:31:07.343Z,7.0
2022-09-21T05:32:49.591Z,8.7
2022-09-21T05:34:49.918Z,20.6
2022-09-21T05:36:50.224Z,16.6
2022-09-21T05:38:50.123Z,16.6
2022-09-21T05:40:49.854Z,10.4
2022-09-21T05:42:49.871Z,8.8
2022-09-21T05:44:49.857Z,10.8
2022-09-21T05:46:54.042Z,10.8
2022-09-21T05:48:50.291Z,14.3
2022-09-21T05:50:50.011Z,7.8
2022-09-21T05:52:50.049Z,11.5
2022-09-21T05:54:49.992Z,6.3
2022-09-21T05:56:50.057Z,7.3
2022-09-21T05:58:49.789Z,7.3
2022-09-21T06:00:49.631Z,5.4
2022-09-21T06:02:49.570Z,3.4
2022-09-21T06:04:50.141Z,6.6
2022-09-21T06:06:50.513Z,4.4
2022-09-21T06:08:50.449Z,4.4
2022-09-21T06:10:50.228Z,7.8
2022-09-21T06:12:50.146Z,7.5
2022-09-21T06:14:50.003Z,4.0
2022-09-21T06:16:50.173Z,4.0
2022-09-21T06:18:50.390Z,5.3
2022-09-21T06:20:50.305Z,3.2
2022-09-21T06:22:50.326Z,2.8
2022-09-21T06:24:50.210Z,3.0
2022-09-21T06:26:50.417Z,3.0
2022-09-21T06:28:50.187Z,3.4
2022-09-21T06:30:50.048Z,6.0
2022-09-21T06:32:50.206Z,6.0
2022-09-21T06:34:49.835Z,3.6
2022-09-21T06:36:50.213Z,3.6
2022-09-21T06:38:50.200Z,5.0
2022-09-21T06:40:50.137Z,5.3
2022-09-21T06:42:50.061Z,3.6
2022-09-21T06:44:49.914Z,3.2
2022-09-21T06:46:49.951Z,3.2
2022-09-21T06:48:49.731Z,8.0
2022-09-21T06:50:49.644Z,2.4
2022-09-21T06:52:49.685Z,3.0
2022-09-21T06:54:50.346Z,3.4
2022-09-21T06:56:50.527Z,3.4
2022-09-21T06:58:50.346Z,2.9
2022-09-21T07:00:50.346Z,4.8
2022-09-21T07:02:49.831Z,2.8
2022-09-21T07:04:50.088Z,2.8
2022-09-21T07:06:50.365Z,4.0
2022-09-21T07:10:50.211Z,3.0
2022-09-21T07:12:49.943Z,3.0
2022-09-21T07:14:49.760Z,3.3
2022-09-21T07:16:50.073Z,3.1
2022-09-21T07:18:49.927Z,4.0
2022-09-21T07:20:49.777Z,3.3
2022-09-21T07:22:49.610Z,3.2
2022-09-21T07:24:50.534Z,3.2
2022-09-21T07:26:49.810Z,6.1
2022-09-21T07:28:49.793Z,5.3
2022-09-21T07:30:49.661Z,3.4
2022-09-21T07:32:50.458Z,3.8
2022-09-21T07:34:49.997Z,3.8
2022-09-21T07:36:50.478Z,4.4
2022-09-21T07:38:50.170Z,4.4
2022-09-21T07:40:50.133Z,4.2
2022-09-21T07:42:50.430Z,4.2
2022-09-21T07:44:51.147Z,3.2
2022-09-21T07:46:50.344Z,3.5
2022-09-21T07:48:50.230Z,4.6
2022-09-21T07:50:50.060Z,3.4
2022-09-21T07:52:50.121Z,3.6
2022-09-21T07:54:50.084Z,3.6
2022-09-21T07:56:50.227Z,4.4
2022-09-21T07:58:50.145Z,4.5
2022-09-21T08:00:50.106Z,3.6
2022-09-21T08:02:50.299Z,3.5
2022-09-21T08:04:49.965Z,3.5
2022-09-21T08:06:50.149Z,4.4
2022-09-21T08:08:53.798Z,3.9
2022-09-21T08:10:50.087Z,4.0
2022-09-21T08:12:50.066Z,4.0
2022-09-21T08:14:50.118Z,4.1
2022-09-21T08:16:50.335Z,4.0
2022-09-21T08:18:49.684Z,4.1
2022-09-21T08:20:50.539Z,3.9
2022-09-21T08:22:50.474Z,3.9
2022-09-21T08:24:50.351Z,4.0
2022-09-21T08:26:50.517Z,4.3
2022-09-21T08:28:50.522Z,4.3
2022-09-21T08:30:50.345Z,4.5
2022-09-21T08:32:51.257Z,4.5
2022-09-21T08:34:50.282Z,5.9
2022-09-21T08:36:54.544Z,4.6
2022-09-21T08:38:49.975Z,4.7
2022-09-21T08:40:49.846Z,4.7
2022-09-21T08:42:50.863Z,4.9
2022-09-21T08:44:49.796Z,4.6
2022-09-21T08:46:50.021Z,5.0
2022-09-21T08:48:50.227Z,5.4
2022-09-21T08:50:50.377Z,5.2
2022-09-21T08:52:50.454Z,5.2
2022-09-21T08:54:50.219Z,5.2
2022-09-21T08:57:04.282Z,5.0
2022-09-21T08:58:50.002Z,5.1
2022-09-21T09:00:49.969Z,5.1
2022-09-21T09:02:50.091Z,5.2
2022-09-21T09:04:49.644Z,5.6
2022-09-21T09:06:49.929Z,5.7
2022-09-21T09:08:49.874Z,5.2
2022-09-21T09:10:49.751Z,5.2
2022-09-21T09:12:49.589Z,5.6
2022-09-21T09:14:50.352Z,5.6
2022-09-21T09:16:50.518Z,7.6
2022-09-21T09:18:49.544Z,5.7
2022-09-21T09:20:50.391Z,5.7
2022-09-21T09:22:50.449Z,6.3
2022-09-21T09:24:50.405Z,5.9
2022-09-21T09:26:50.525Z,6.0
2022-09-21T09:28:52.981Z,6.3
2022-09-21T09:30:50.095Z,6.3
2022-09-21T09:32:50.172Z,6.3
2022-09-21T09:34:49.699Z,6.3
2022-09-21T09:36:58.610Z,6.3
2022-09-21T09:38:50.103Z,6.2
2022-09-21T09:40:50.052Z,7.9
2022-09-21T09:42:50.145Z,7.0
2022-09-21T09:44:50.215Z,7.3
2022-09-21T09:46:50.255Z,6.8
2022-09-21T09:48:53.998Z,6.8
2022-09-21T09:50:50.361Z,6.8
2022-09-21T09:52:50.245Z,6.4
2022-09-21T09:54:50.232Z,6.4
2022-09-21T09:56:50.483Z,6.4
2022-09-21T09:58:49.688Z,7.4
2022-09-21T10:00:49.675Z,7.1
2022-09-21T10:02:49.570Z,7.0
2022-09-21T10:04:49.709Z,7.6
2022-09-21T10:06:49.791Z,7.9
2022-09-21T10:08:50.041Z,7.9
2022-09-21T10:10:49.983Z,7.9
2022-09-21T10:12:49.960Z,7.0
2022-09-21T10:14:49.862Z,7.3
2022-09-21T10:16:49.595Z,7.3
2022-09-21T10:18:49.727Z,6.8
2022-09-21T10:20:49.614Z,6.7
2022-09-21T10:22:49.711Z,6.7
2022-09-21T10:24:50.398Z,5.9
2022-09-21T10:26:49.934Z,5.9
2022-09-21T10:28:49.834Z,6.2
2022-09-21T10:30:50.114Z,5.6
2022-09-21T10:32:50.372Z,5.6
2022-09-21T10:34:49.551Z,5.6
2022-09-21T10:36:49.808Z,5.6
2022-09-21T10:38:50.520Z,5.2
2022-09-21T10:40:50.588Z,5.5
2022-09-21T10:42:49.963Z,5.0
2022-09-21T10:44:50.052Z,5.1
2022-09-21T10:46:49.840Z,5.1
2022-09-21T10:48:50.443Z,4.9
2022-09-21T10:50:50.354Z,4.9
2022-09-21T10:52:50.308Z,5.2
2022-09-21T10:54:50.272Z,5.2
2022-09-21T10:56:50.310Z,5.2
2022-09-21T10:58:50.459Z,4.5
2022-09-21T11:00:50.261Z,4.5
2022-09-21T11:02:50.178Z,4.3
2022-09-21T11:04:50.233Z,4.3
2022-09-21T11:06:49.571Z,4.2
2022-09-21T11:08:50.389Z,4.2
2022-09-21T11:10:50.355Z,3.8
2022-09-21T11:12:50.198Z,3.9
2022-09-21T11:14:49.994Z,3.9
2022-09-21T11:16:50.187Z,3.9
2022-09-21T11:18:50.075Z,3.7
2022-09-21T11:20:50.264Z,3.5
2022-09-21T11:22:52.316Z,3.3
2022-09-21T11:24:49.685Z,3.3
2022-09-21T11:26:49.892Z,3.1
2022-09-21T11:28:49.851Z,3.3
2022-09-21T11:30:49.823Z,3.2
2022-09-21T11:32:49.799Z,3.2
2022-09-21T11:34:50.113Z,3.3
2022-09-21T11:36:50.491Z,3.0
2022-09-21T11:38:50.411Z,3.5
2022-09-21T11:40:50.228Z,3.4
2022-09-21T11:42:49.957Z,4.1
2022-09-21T11:44:49.639Z,4.1
2022-09-21T11:46:49.682Z,3.3
2022-09-21T11:48:50.485Z,4.1
2022-09-21T11:52:50.351Z,2.6
2022-09-21T11:54:50.329Z,2.4
2022-09-21T11:56:50.443Z,2.8
2022-09-21T11:58:52.640Z,2.7
2022-09-21T12:00:50.006Z,2.2
2022-09-21T12:04:49.768Z,1.9
2022-09-21T12:06:49.874Z,2.0
2022-09-21T12:08:49.844Z,2.1
2022-09-21T12:10:49.816Z,2.0
2022-09-21T12:12:49.901Z,2.0
2022-09-21T12:14:49.684Z,1.9
2022-09-21T12:16:49.961Z,1.8
2022-09-21T12:18:50.505Z,2.0
2022-09-21T12:20:50.544Z,1.7
2022-09-21T12:22:49.590Z,1.7
2022-09-21T12:24:50.429Z,1.8
2022-09-21T12:26:50.522Z,1.6
2022-09-21T12:28:50.441Z,1.5
2022-09-21T12:30:50.392Z,2.0
2022-09-21T12:32:49.609Z,2.0
2022-09-21T12:34:50.023Z,1.2
2022-09-21T12:36:50.108Z,1.2
2022-09-21T12:38:50.225Z,1.5
2022-09-21T12:40:50.116Z,1.5
2022-09-21T12:42:50.060Z,1.7
2022-09-21T12:44:49.900Z,1.9
2022-09-21T12:46:52.420Z,1.5
2022-09-21T12:48:50.436Z,2.0
2022-09-21T12:50:50.262Z,2.0
2022-09-21T12:52:50.130Z,1.5
2022-09-21T12:54:49.910Z,1.5
2022-09-21T12:56:50.236Z,4.6
2022-09-21T12:58:49.983Z,2.7
2022-09-21T13:00:50.030Z,2.7
2022-09-21T13:02:50.028Z,1.5
2022-09-21T13:04:49.683Z,2.0
2022-09-21T13:06:50.134Z,1.5
2022-09-21T13:10:54.624Z,1.3
2022-09-21T13:12:50.091Z,1.5
2022-09-21T13:14:49.874Z,1.2
2022-09-21T13:16:50.153Z,1.4
2022-09-21T13:18:50.299Z,1.6
2022-09-21T13:20:50.324Z,1.6
2022-09-21T13:22:50.404Z,1.2
2022-09-21T13:24:50.242Z,1.2
2022-09-21T13:26:50.448Z,1.2
2022-09-21T13:28:50.474Z,1.2
2022-09-21T13:30:49.948Z,1.2
2022-09-21T13:32:49.674Z,4.0
2022-09-21T13:34:49.995Z,1.3
2022-09-21T13:36:50.075Z,1.2
2022-09-21T13:38:49.997Z,1.4
2022-09-21T13:40:50.019Z,1.4
2022-09-21T13:42:50.491Z,2.3
2022-09-21T13:44:50.451Z,1.2
2022-09-21T13:46:49.683Z,1.2
2022-09-21T13:48:49.878Z,1.8
2022-09-21T13:50:49.833Z,1.8
2022-09-21T13:52:49.624Z,1.5
2022-09-21T13:54:49.575Z,4.6
2022-09-21T13:56:49.537Z,5.7
2022-09-21T13:58:50.379Z,5.7
2022-09-21T14:00:50.267Z,4.7
2022-09-21T14:02:49.703Z,3.8
2022-09-21T14:04:50.304Z,1.3
2022-09-21T14:06:50.533Z,1.3
2022-09-21T14:08:50.528Z,1.3
2022-09-21T14:10:50.311Z,1.4
2022-09-21T14:12:50.194Z,2.7
2022-09-21T14:14:50.034Z,1.9
2022-09-21T14:16:51.803Z,2.2
2022-09-21T14:18:50.491Z,2.2
2022-09-21T14:20:50.492Z,1.6
2022-09-21T14:22:50.549Z,3.2
2022-09-21T14:24:49.599Z,3.1
2022-09-21T14:26:49.671Z,2.0
2022-09-21T14:28:50.451Z,2.0
2022-09-21T14:30:50.392Z,1.5
2022-09-21T14:32:49.667Z,2.6
2022-09-21T14:34:50.071Z,6.1
2022-09-21T14:36:50.201Z,2.3
2022-09-21T14:38:52.541Z,2.3
2022-09-21T14:40:49.737Z,4.1
2022-09-21T14:42:49.694Z,4.7
2022-09-21T14:44:49.563Z,4.7
2022-09-21T14:46:49.662Z,3.5
2022-09-21T14:48:49.682Z,3.5
2022-09-21T14:50:49.763Z,4.9
2022-09-21T14:52:49.680Z,5.2
2022-09-21T14:54:50.434Z,5.4
2022-09-21T14:56:49.715Z,5.4
2022-09-21T14:58:49.568Z,3.3
2022-09-21T15:00:50.235Z,2.9
2022-09-21T15:02:49.644Z,2.1
2022-09-21T15:04:53.837Z,3.4
2022-09-21T15:06:49.838Z,3.4
2022-09-21T15:08:49.762Z,4.5
2022-09-21T15:10:54.508Z,2.3
2022-09-21T15:12:50.328Z,1.6
2022-09-21T15:14:50.131Z,2.4
2022-09-21T15:16:50.469Z,2.4
2022-09-21T15:18:50.277Z,2.1
2022-09-21T15:20:50.104Z,1.4
2022-09-21T15:22:50.123Z,1.3
2022-09-21T15:24:50.101Z,1.3
2022-09-21T15:26:50.131Z,1.6
2022-09-21T15:29:08.665Z,1.2
2022-09-21T15:30:49.787Z,1.1
2022-09-21T15:32:49.669Z,6.1
2022-09-21T15:34:50.327Z,4.0
2022-09-21T15:36:50.206Z,4.0
2022-09-21T15:38:50.023Z,1.1
2022-09-21T15:40:49.999Z,7.4
2022-09-21T15:42:50.417Z,1.9
2022-09-21T15:44:50.207Z,2.0
2022-09-21T15:46:50.478Z,2.0
2022-09-21T15:48:49.638Z,2.0
2022-09-21T15:50:50.476Z,1.4
2022-09-21T15:52:50.301Z,1.4
2022-09-21T15:54:50.101Z,2.5
2022-09-21T15:56:50.421Z,2.5
2022-09-21T15:58:50.184Z,1.7
2022-09-21T16:00:50.112Z,1.5
2022-09-21T16:02:50.151Z,1.5
2022-09-21T16:04:50.270Z,1.7
2022-09-21T16:06:50.243Z,1.3
2022-09-21T16:08:49.976Z,2.9
2022-09-21T16:10:49.840Z,2.9
2022-09-21T16:12:49.799Z,1.4
2022-09-21T16:14:49.738Z,1.6
2022-09-21T16:16:50.027Z,1.7
2022-09-21T16:18:50.044Z,1.8
2022-09-21T16:20:50.026Z,1.8
2022-09-21T16:22:49.899Z,1.7
2022-09-21T16:24:49.621Z,1.7
2022-09-21T16:26:49.801Z,1.6
2022-09-21T16:28:50.465Z,1.7
2022-09-21T16:30:50.340Z,1.6
2022-09-21T16:32:50.180Z,1.6
2022-09-21T16:34:50.395Z,2.8
2022-09-21T16:36:49.653Z,2.0
2022-09-21T16:38:50.320Z,6.3
2022-09-21T16:40:50.114Z,1.6
2022-09-21T16:42:50.042Z,1.6
2022-09-21T16:44:50.032Z,3.4
2022-09-21T16:46:50.240Z,2.2
2022-09-21T16:48:50.384Z,1.9
2022-09-21T16:50:50.052Z,2.2
2022-09-21T16:52:49.755Z,2.2
2022-09-21T16:54:49.586Z,2.2
2022-09-21T16:56:50.502Z,2.0
2022-09-21T16:58:50.376Z,3.6
2022-09-21T17:00:51.982Z,3.6
2022-09-21T17:02:50.438Z,2.1
2022-09-21T17:04:49.742Z,1.9
2022-09-21T17:06:49.956Z,2.4
2022-09-21T17:08:49.763Z,2.4
2022-09-21T17:10:49.672Z,1.8
2022-09-21T17:12:49.603Z,1.9
2022-09-21T17:14:50.485Z,2.3
2022-09-21T17:16:50.479Z,2.0
2022-09-21T17:18:50.254Z,2.1
2022-09-21T17:20:50.418Z,2.1
2022-09-21T17:22:50.145Z,2.0
2022-09-21T17:24:51.136Z,2.2
2022-09-21T17:26:49.986Z,2.2
2022-09-21T17:28:49.918Z,2.2
2022-09-21T17:30:49.651Z,2.2
2022-09-21T17:32:50.509Z,2.1
2022-09-21T17:34:49.819Z,1.9
2022-09-21T17:36:50.053Z,2.0
2022-09-21T17:38:49.950Z,3.6
2022-09-21T17:40:49.861Z,3.6
2022-09-21T17:42:49.984Z,3.1
2022-09-21T17:44:49.720Z,2.5
2022-09-21T17:46:50.084Z,2.4
2022-09-21T17:48:50.171Z,2.5
2022-09-21T17:50:49.782Z,2.5
2022-09-21T17:52:49.660Z,3.0
2022-09-21T17:54:50.449Z,2.6
2022-09-21T17:56:49.836Z,3.2
2022-09-21T17:58:49.721Z,3.2
2022-09-21T18:00:50.467Z,2.7
2022-09-21T18:02:50.563Z,2.5
2022-09-21T18:04:50.267Z,2.6
2022-09-21T18:06:50.157Z,2.6
2022-09-21T18:08:49.884Z,5.1
2022-09-21T18:10:49.545Z,5.1
2022-09-21T18:12:50.266Z,3.0
2022-09-21T18:14:50.047Z,3.0
2022-09-21T18:16:50.222Z,3.7
2022-09-21T18:18:49.966Z,3.7
2022-09-21T18:20:49.707Z,2.8
2022-09-21T18:22:50.503Z,3.0
2022-09-21T18:24:50.169Z,3.0
2022-09-21T18:26:50.169Z,4.2
2022-09-21T18:28:49.968Z,4.2
2022-09-21T18:30:49.902Z,2.9
2022-09-21T18:32:49.820Z,3.1
2022-09-21T18:34:49.983Z,2.9
2022-09-21T18:36:50.042Z,3.4
2022-09-21T18:38:49.998Z,3.4
2022-09-21T18:40:49.719Z,3.5
2022-09-21T18:42:50.493Z,4.0
2022-09-21T18:44:50.322Z,3.4
2022-09-21T18:46:50.538Z,3.4
2022-09-21T18:48:51.071Z,3.6
2022-09-21T18:50:49.951Z,3.6
2022-09-21T18:52:49.688Z,3.1
2022-09-21T18:54:50.469Z,3.4
2022-09-21T18:56:50.521Z,3.4
2022-09-21T18:58:50.246Z,3.5
2022-09-21T19:00:50.074Z,3.6
2022-09-21T19:03:12.538Z,3.7
2022-09-21T19:04:50.292Z,3.7
2022-09-21T19:06:50.361Z,4.5
2022-09-21T19:08:50.320Z,4.8
2022-09-21T19:10:50.152Z,5.1
2022-09-21T19:12:49.976Z,5.1
2022-09-21T19:14:49.835Z,3.7
2022-09-21T19:16:50.054Z,3.7
2022-09-21T19:18:50.014Z,3.9
2022-09-21T19:20:49.821Z,3.0
2022-09-21T19:22:49.590Z,3.3
2022-09-21T19:24:50.342Z,3.0
2022-09-21T19:26:50.430Z,3.0
2022-09-21T19:28:50.236Z,3.1
2022-09-21T19:30:50.212Z,3.3
2022-09-21T19:32:50.388Z,3.4
2022-09-21T19:34:49.786Z,3.4
2022-09-21T19:36:50.045Z,3.4
2022-09-21T19:38:49.804Z,4.5
2022-09-21T19:40:49.620Z,3.7
2022-09-21T19:42:49.904Z,3.7
2022-09-21T19:44:49.586Z,4.0
2022-09-21T19:46:49.577Z,4.0
2022-09-21T19:48:50.314Z,5.8
2022-09-21T19:50:50.083Z,5.7
2022-09-21T19:52:49.929Z,7.8
2022-09-21T19:54:49.679Z,7.8
2022-09-21T19:56:53.376Z,6.2
2022-09-21T19:58:50.395Z,5.7
2022-09-21T20:00:50.296Z,6.0
2022-09-21T20:02:50.037Z,5.9
2022-09-21T20:04:49.625Z,5.9
2022-09-21T20:06:49.780Z,5.8
2022-09-21T20:08:49.838Z,6.3
2022-09-21T20:10:50.518Z,6.2
2022-09-21T20:12:50.080Z,6.5
2022-09-21T20:14:49.972Z,6.5
2022-09-21T20:16:50.054Z,8.0
2022-09-21T20:18:50.042Z,9.6
2022-09-21T20:20:49.769Z,7.7
2022-09-21T20:22:49.546Z,7.0
2022-09-21T20:24:50.267Z,7.0
2022-09-21T20:26:50.447Z,8.2
2022-09-21T20:28:50.018Z,8.3
2022-09-21T20:30:49.738Z,7.3
2022-09-21T20:32:50.110Z,7.3
2022-09-21T20:34:50.330Z,7.3
2022-09-21T20:36:50.424Z,7.0
2022-09-21T20:38:50.111Z,7.0
2022-09-21T20:40:50.007Z,7.2
2022-09-21T20:42:50.262Z,7.2
2022-09-21T20:44:50.039Z,7.5
2022-09-21T20:46:50.028Z,7.3
2022-09-21T20:48:49.770Z,8.1
2022-09-21T20:50:50.524Z,7.4
2022-09-21T20:52:50.350Z,7.4
2022-09-21T20:54:50.234Z,7.1
2022-09-21T20:56:50.327Z,7.8
2022-09-21T20:58:50.161Z,8.7
2022-09-21T21:00:49.946Z,7.6
2022-09-21T21:02:49.927Z,7.6
2022-09-21T21:04:50.333Z,7.7
2022-09-21T21:06:50.419Z,7.8
2022-09-21T21:08:50.245Z,7.8
2022-09-21T21:10:50.144Z,8.0
2022-09-21T21:12:49.984Z,8.4
2022-09-21T21:14:49.805Z,8.2
2022-09-21T21:16:50.216Z,7.6
2022-09-21T21:18:50.248Z,7.3
2022-09-21T21:20:50.053Z,7.3
2022-09-21T21:22:49.907Z,9.2
2022-09-21T21:24:49.622Z,11.2
2022-09-21T21:27:01.590Z,9.0
2022-09-21T21:28:49.955Z,9.6
2022-09-21T21:30:49.777Z,7.1
2022-09-21T21:32:49.636Z,7.1
2022-09-21T21:34:49.759Z,6.9
2022-09-21T21:36:49.836Z,6.9
2022-09-21T21:38:49.587Z,8.7
2022-09-21T21:40:50.294Z,8.7
2022-09-21T21:42:49.585Z,8.0
2022-09-21T21:44:50.302Z,6.2
2022-09-21T21:46:50.285Z,6.2
2022-09-21T21:48:50.284Z,6.2
2022-09-21T21:50:50.100Z,6.2
2022-09-21T21:52:49.862Z,5.6
2022-09-21T21:54:49.830Z,6.8
2022-09-21T21:56:50.238Z,6.1
2022-09-21T21:58:49.969Z,6.4
2022-09-21T22:00:50.161Z,6.4
2022-09-21T22:02:50.332Z,6.9
2022-09-21T22:04:50.534Z,6.5
2022-09-21T22:06:50.455Z,6.5
2022-09-21T22:08:50.269Z,7.7
2022-09-21T22:10:50.100Z,7.7
2022-09-21T22:12:50.174Z,7.0
2022-09-21T22:14:50.166Z,6.9
2022-09-21T22:16:50.175Z,6.9
2022-09-21T22:18:50.275Z,6.2
2022-09-21T22:20:50.194Z,6.2
2022-09-21T22:22:50.078Z,6.7
2022-09-21T22:24:50.025Z,6.7
2022-09-21T22:26:50.194Z,8.4
2022-09-21T22:28:50.042Z,7.0
2022-09-21T22:30:49.761Z,7.4
2022-09-21T22:32:50.500Z,7.9
2022-09-21T22:34:49.777Z,8.4
2022-09-21T22:36:49.947Z,8.8
2022-09-21T22:38:49.785Z,8.8
2022-09-21T22:40:49.592Z,8.7
2022-09-21T22:42:50.231Z,7.0
2022-09-21T22:44:50.059Z,6.7
2022-09-21T22:46:50.126Z,6.7
2022-09-21T22:48:49.881Z,8.9
2022-09-21T22:50:49.559Z,8.7
2022-09-21T22:52:50.326Z,6.2
2022-09-21T22:54:50.216Z,8.9
2022-09-21T22:56:50.420Z,6.5
2022-09-21T22:58:50.383Z,6.5
2022-09-21T23:00:50.374Z,7.3
2022-09-21T23:02:50.325Z,8.2
2022-09-21T23:04:49.690Z,6.6
2022-09-21T23:06:50.009Z,7.2
2022-09-21T23:08:50.001Z,7.2
2022-09-21T23:10:49.828Z,6.9
2022-09-21T23:12:49.686Z,6.6
2022-09-21T23:14:49.678Z,7.8
2022-09-21T23:16:50.036Z,7.8
2022-09-21T23:18:49.962Z,6.6
2022-09-21T23:20:49.682Z,6.9
2022-09-21T23:22:51.958Z,6.4
2022-09-21T23:24:49.940Z,5.9
2022-09-21T23:26:50.185Z,5.9
2022-09-21T23:28:50.135Z,5.8
2022-09-21T23:30:49.919Z,5.7
2022-09-21T23:32:49.686Z,6.9
2022-09-21T23:34:50.119Z,6.3
2022-09-21T23:36:50.444Z,6.3
2022-09-21T23:38:50.391Z,6.9
2022-09-21T23:40:50.145Z,6.4
2022-09-21T23:42:49.998Z,5.7
2022-09-21T23:44:50.075Z,5.3
2022-09-21T23:46:50.488Z,5.3
2022-09-21T23:48:49.741Z,5.7
2022-09-21T23:50:50.358Z,5.7
2022-09-21T23:52:50.187Z,5.4
2022-09-21T23:54:50.191Z,6.2
2022-09-21T23:56:49.580Z,5.9
2022-09-21T23:58:50.471Z,5.3
